Impacts METAR Board INFO
IDs:

KMCO - Orlando Intl, FL, US

Updated at: 0031 UTC 12 Dec 2017
Potential Impact None Slight Moderate High
Time11/12Z 11/13Z 11/14Z 11/15Z 11/16Z 11/17Z 11/18Z 11/19Z 11/20Z 11/21Z 11/22Z 11/23Z 12/00Z
VIS10 10 10 10 10 10 10 10 10 10 10 10 10
CIG-- -- -- -- -- -- -- -- -- -- -- -- --
CoverCLRFEWFEWFEWCLRCLRCLRCLRFEWFEWCLRCLRCLR
FltCatVFRVFRVFRVFRVFRVFRVFRVFRVFRVFRVFRVFRVFR
WX--------------------------
WDir350340360360340320340290300320270270310
WSpd4 3 6 10 9 10 5 3 6 8 5 6 5
WGst-- -- -- -- -- -- -- -- -- -- -- -- --
Raw hourly METARs
KMCO 111155Z 35004KT 10SM CLR 05/03 A3030
KMCO 111253Z 34003KT 10SM FEW250 05/04 A3031
KMCO 111353Z 36006KT 10SM FEW250 14/M04 A3031
KMCO 111453Z 36010KT 10SM FEW250 15/M03 A3031
KMCO 111553Z 34009KT 10SM CLR 15/M05 A3029
KMCO 111653Z 32010KT 10SM CLR 17/M08 A3026
KMCO 111753Z 34005KT 10SM CLR 19/M08 A3023
KMCO 111853Z 29003KT 10SM CLR 18/M03 A3020
KMCO 111953Z 30006KT 10SM FEW250 16/M03 A3018
KMCO 112053Z 32008KT 10SM FEW250 16/M02 A3018
KMCO 112153Z 27005KT 10SM CLR 15/M01 A3017
KMCO 112253Z 27006KT 10SM CLR 12/M01 A3018
KMCO 112353Z 31005KT 10SM CLR 11/M01 A3019